createdAt,value
2022-11-28T00:00:27.824Z,1.99
2022-11-28T00:04:51.648Z,1.97
2022-11-28T00:08:54.781Z,1.93
2022-11-28T00:12:56.764Z,1.95
2022-11-28T00:16:58.737Z,1.94
2022-11-28T00:21:01.625Z,1.92
2022-11-28T00:25:03.941Z,1.94
2022-11-28T00:29:07.263Z,1.97
2022-11-28T00:33:09.229Z,2.00
2022-11-28T00:37:11.343Z,1.97
2022-11-28T00:41:16.572Z,1.93
2022-11-28T00:45:18.511Z,1.88
2022-11-28T00:49:20.610Z,1.84
2022-11-28T00:53:22.678Z,1.83
2022-11-28T00:57:24.725Z,1.84
2022-11-28T01:01:28.889Z,1.73
2022-11-28T01:05:30.905Z,1.55
2022-11-28T01:09:32.860Z,1.47
2022-11-28T01:13:34.894Z,1.45
2022-11-28T01:17:37.185Z,1.40
2022-11-28T01:21:40.047Z,1.40
2022-11-28T01:25:41.988Z,1.49
2022-11-28T01:29:43.874Z,1.59
2022-11-28T01:33:46.304Z,1.71
2022-11-28T01:37:48.284Z,1.76
2022-11-28T01:41:50.243Z,1.80
2022-11-28T01:45:53.048Z,1.86
2022-11-28T01:49:55.546Z,1.91
2022-11-28T01:53:58.707Z,1.92
2022-11-28T01:58:01.071Z,1.89
2022-11-28T02:02:08.359Z,1.86
2022-11-28T02:06:13.861Z,1.81
2022-11-28T02:10:24.978Z,1.77
2022-11-28T02:14:45.504Z,1.82
2022-11-28T02:19:05.624Z,1.86
2022-11-28T02:23:26.082Z,1.85
2022-11-28T02:27:38.327Z,1.83
2022-11-28T02:32:17.669Z,1.81
2022-11-28T02:36:22.229Z,1.79
2022-11-28T02:40:31.135Z,1.75
2022-11-28T02:44:32.919Z,1.73
2022-11-28T02:48:47.776Z,1.66
2022-11-28T02:52:59.207Z,1.59
2022-11-28T02:57:02.590Z,1.59
2022-11-28T03:01:11.926Z,1.59
2022-11-28T03:05:22.757Z,1.61
2022-11-28T03:09:42.965Z,1.62
2022-11-28T03:13:47.683Z,1.63
2022-11-28T03:18:01.759Z,1.63
2022-11-28T03:22:22.221Z,1.62
2022-11-28T03:26:32.275Z,1.65
2022-11-28T03:30:43.028Z,1.68
2022-11-28T03:34:49.340Z,1.67
2022-11-28T03:39:00.026Z,1.65
2022-11-28T03:43:07.333Z,1.57
2022-11-28T03:47:09.946Z,1.47
2022-11-28T03:51:23.362Z,1.39
2022-11-28T03:55:36.164Z,1.38
2022-11-28T03:59:59.377Z,1.42
2022-11-28T04:04:32.035Z,1.45
2022-11-28T04:08:43.228Z,1.46
2022-11-28T04:12:56.796Z,1.43
2022-11-28T04:17:16.464Z,1.44
2022-11-28T04:21:31.941Z,1.48
2022-11-28T04:25:38.246Z,1.54
2022-11-28T04:29:46.089Z,1.59
2022-11-28T04:33:54.115Z,1.59
2022-11-28T04:37:59.813Z,1.57
2022-11-28T04:42:13.389Z,1.55
2022-11-28T04:46:21.190Z,1.57
2022-11-28T04:50:27.989Z,1.59
2022-11-28T04:54:35.890Z,1.59
2022-11-28T04:58:41.894Z,1.56
2022-11-28T05:02:46.288Z,1.51
2022-11-28T05:06:48.325Z,1.48
2022-11-28T05:10:50.313Z,1.48
2022-11-28T05:14:52.376Z,1.50
2022-11-28T05:18:54.452Z,1.54
2022-11-28T05:22:56.764Z,1.55
2022-11-28T05:26:58.785Z,1.49
2022-11-28T05:31:02.249Z,1.41
2022-11-28T05:35:04.730Z,1.38
2022-11-28T05:39:06.748Z,1.37
2022-11-28T05:43:08.712Z,1.37
2022-11-28T05:47:10.664Z,1.38
2022-11-28T05:51:12.780Z,1.37
2022-11-28T05:55:15.049Z,1.30
2022-11-28T05:59:17.095Z,1.29
2022-11-28T06:03:19.118Z,1.30
2022-11-28T06:07:21.203Z,1.33
2022-11-28T06:11:25.031Z,1.34
2022-11-28T06:15:26.992Z,1.31
2022-11-28T06:19:29.063Z,1.24
2022-11-28T06:23:32.053Z,1.18
2022-11-28T06:27:34.877Z,1.18
2022-11-28T06:31:37.053Z,1.18
2022-11-28T06:35:39.539Z,1.20
2022-11-28T06:39:41.770Z,1.22
2022-11-28T06:43:44.151Z,1.22
2022-11-28T06:47:46.125Z,1.22
2022-11-28T06:51:48.132Z,1.19
2022-11-28T06:55:50.034Z,1.17
2022-11-28T06:59:52.048Z,1.20
2022-11-28T07:03:54.985Z,1.25
2022-11-28T07:07:57.926Z,1.30
2022-11-28T07:11:59.960Z,1.36
2022-11-28T07:16:01.952Z,1.38
2022-11-28T07:20:05.279Z,1.39
2022-11-28T07:24:07.928Z,1.39
2022-11-28T07:28:10.027Z,1.41
2022-11-28T07:32:12.207Z,1.46
2022-11-28T07:36:17.574Z,1.50
2022-11-28T07:40:23.262Z,1.53
2022-11-28T07:44:25.298Z,1.53
2022-11-28T07:48:27.341Z,1.48
2022-11-28T07:52:29.320Z,1.50
2022-11-28T07:57:04.479Z,1.55
2022-11-28T08:00:57.235Z,1.60
2022-11-28T08:04:59.757Z,1.60
2022-11-28T08:09:01.930Z,1.59
2022-11-28T08:13:04.001Z,1.58
2022-11-28T08:17:06.125Z,1.57
2022-11-28T08:21:20.901Z,1.58
2022-11-28T08:25:22.921Z,1.62
2022-11-28T08:29:24.908Z,1.66
2022-11-28T08:33:27.247Z,1.72
2022-11-28T08:37:29.270Z,1.77
2022-11-28T08:41:31.258Z,1.83
2022-11-28T08:45:37.287Z,1.83
2022-11-28T08:49:39.493Z,1.80
2022-11-28T08:53:47.274Z,1.78
2022-11-28T08:57:50.778Z,1.77
2022-11-28T09:01:54.092Z,1.80
2022-11-28T09:06:04.289Z,1.84
2022-11-28T09:10:07.096Z,1.85
2022-11-28T09:14:09.372Z,1.85
2022-11-28T09:18:13.520Z,1.84
2022-11-28T09:22:15.766Z,1.88
2022-11-28T09:26:19.768Z,1.97
2022-11-28T09:30:22.463Z,2.03
2022-11-28T09:34:24.762Z,2.08
2022-11-28T09:38:32.670Z,2.07
2022-11-28T09:42:44.003Z,2.04
2022-11-28T09:46:49.794Z,2.02
2022-11-28T09:50:58.099Z,2.07
2022-11-28T09:55:21.518Z,2.12
2022-11-28T09:59:27.365Z,2.17
2022-11-28T10:03:41.329Z,2.14
2022-11-28T10:08:09.731Z,2.12
2022-11-28T10:12:37.723Z,2.08
2022-11-28T10:16:50.660Z,2.10
2022-11-28T10:20:58.766Z,2.14
2022-11-28T10:25:12.008Z,2.19
2022-11-28T10:29:32.211Z,2.23
2022-11-28T10:33:51.965Z,2.22
2022-11-28T10:37:54.985Z,2.19
2022-11-28T10:42:13.458Z,2.21
2022-11-28T10:46:29.649Z,2.24
2022-11-28T10:50:43.909Z,2.31
2022-11-28T10:54:45.916Z,2.40
2022-11-28T10:59:06.653Z,2.46
2022-11-28T11:03:13.532Z,2.50
2022-11-28T11:07:29.148Z,2.52
2022-11-28T11:11:39.478Z,2.57
2022-11-28T11:15:41.815Z,2.64
2022-11-28T11:19:44.085Z,2.71
2022-11-28T11:23:47.505Z,2.75
2022-11-28T11:27:52.439Z,2.76
2022-11-28T11:31:55.431Z,2.77
2022-11-28T11:35:57.579Z,2.78
2022-11-28T11:40:01.835Z,2.81
2022-11-28T11:44:33.735Z,2.85
2022-11-28T11:48:43.402Z,2.93
2022-11-28T11:53:04.253Z,2.95
2022-11-28T11:57:32.024Z,2.97
2022-11-28T12:01:35.055Z,2.96
2022-11-28T12:06:13.323Z,2.96
2022-11-28T12:10:19.114Z,2.98
2022-11-28T12:14:32.927Z,3.02
2022-11-28T12:19:08.437Z,2.99
2022-11-28T12:23:24.999Z,2.96
2022-11-28T12:28:14.771Z,2.97
2022-11-28T13:17:19.866Z,2.86
2022-11-28T13:21:49.247Z,2.87
2022-11-28T13:26:06.185Z,2.90
2022-11-28T13:30:17.774Z,2.90
2022-11-28T13:34:21.269Z,2.86
2022-11-28T13:38:47.127Z,2.80
2022-11-28T13:43:16.934Z,2.78
2022-11-28T13:47:21.904Z,2.80
2022-11-28T13:51:31.521Z,2.82
2022-11-28T13:55:37.584Z,2.84
2022-11-28T13:59:40.044Z,2.82
2022-11-28T14:04:10.951Z,2.78
2022-11-28T14:08:32.480Z,2.76
2022-11-28T14:13:05.366Z,2.75
2022-11-28T14:17:52.424Z,2.75
2022-11-28T14:22:00.191Z,2.77
2022-11-28T14:26:13.002Z,2.75
2022-11-28T14:30:28.886Z,2.73
2022-11-28T14:34:47.670Z,2.68
2022-11-28T14:39:04.828Z,2.67
2022-11-28T14:43:43.516Z,2.66
2022-11-28T14:48:06.378Z,2.66
2022-11-28T14:56:41.867Z,2.57
2022-11-28T15:00:54.729Z,2.50
2022-11-28T15:05:08.844Z,2.45
2022-11-28T15:09:19.849Z,2.43
2022-11-28T15:13:33.354Z,2.42
2022-11-28T15:17:38.112Z,2.40
2022-11-28T15:21:46.574Z,2.34
2022-11-28T15:25:54.829Z,2.25
2022-11-28T15:29:59.517Z,2.21
2022-11-28T15:34:01.901Z,2.16
2022-11-28T15:38:04.031Z,2.15
2022-11-28T15:42:15.444Z,2.16
2022-11-28T15:46:26.729Z,2.12
2022-11-28T15:50:33.484Z,2.08
2022-11-28T15:54:40.641Z,2.02
2022-11-28T15:58:44.772Z,1.97
2022-11-28T16:02:47.946Z,1.94
2022-11-28T16:06:56.198Z,1.90
2022-11-28T16:11:00.506Z,1.85
2022-11-28T16:15:04.361Z,1.78
2022-11-28T16:19:22.782Z,1.69
2022-11-28T16:23:33.552Z,1.56
2022-11-28T16:27:39.793Z,1.41
2022-11-28T16:31:44.022Z,1.32
2022-11-28T16:35:46.083Z,1.27
2022-11-28T16:40:18.561Z,1.22
2022-11-28T16:44:24.099Z,1.19
2022-11-28T16:48:28.914Z,1.14
2022-11-28T16:52:39.069Z,1.04
2022-11-28T16:56:43.093Z,0.95
2022-11-28T17:00:51.292Z,0.87
2022-11-28T17:04:53.675Z,0.83
2022-11-28T17:08:56.494Z,0.80
2022-11-28T17:12:58.398Z,0.72
2022-11-28T17:17:00.517Z,0.66
2022-11-28T17:21:02.486Z,0.64
2022-11-28T17:25:06.707Z,0.63
2022-11-28T17:29:14.572Z,0.59
2022-11-28T17:33:16.677Z,0.51
2022-11-28T17:37:18.652Z,0.44
2022-11-28T17:41:22.756Z,0.41
2022-11-28T17:45:25.219Z,0.39
2022-11-28T17:49:28.371Z,0.38
2022-11-28T17:53:30.426Z,0.39
2022-11-28T17:57:32.852Z,0.40
2022-11-28T18:01:35.647Z,0.37
2022-11-28T18:05:45.827Z,0.37
2022-11-28T18:09:48.084Z,0.35
2022-11-28T18:13:50.277Z,0.32
2022-11-28T18:17:54.122Z,0.32
2022-11-28T18:21:56.569Z,0.29
2022-11-28T18:25:58.677Z,0.26
2022-11-28T18:30:00.667Z,0.21
2022-11-28T18:34:06.926Z,0.17
2022-11-28T18:38:11.347Z,0.16
2022-11-28T18:42:13.456Z,0.17
2022-11-28T18:46:20.708Z,0.18
2022-11-28T18:50:24.099Z,0.15
2022-11-28T18:54:26.225Z,0.15
2022-11-28T18:58:29.013Z,0.18
2022-11-28T19:02:31.941Z,0.22
2022-11-28T19:06:36.055Z,0.27
2022-11-28T19:10:38.953Z,0.31
2022-11-28T19:14:40.975Z,0.31
2022-11-28T19:18:43.900Z,0.31
2022-11-28T19:22:46.360Z,0.33
2022-11-28T19:26:50.292Z,0.35
2022-11-28T19:30:53.115Z,0.37
2022-11-28T19:34:55.829Z,0.38
2022-11-28T19:38:58.959Z,0.35
2022-11-28T19:43:03.694Z,0.34
2022-11-28T19:47:06.299Z,0.35
2022-11-28T19:51:10.283Z,0.33
2022-11-28T19:55:12.484Z,0.29
2022-11-28T19:59:14.695Z,0.23
2022-11-28T20:03:17.847Z,0.20
2022-11-28T20:07:19.932Z,0.19
2022-11-28T20:11:25.268Z,0.20
2022-11-28T20:15:27.566Z,0.20
2022-11-28T20:19:29.539Z,0.17
2022-11-28T20:23:31.616Z,0.13
2022-11-28T20:27:34.107Z,0.12
2022-11-28T20:31:41.411Z,0.12
2022-11-28T20:35:43.423Z,0.15
2022-11-28T20:39:45.794Z,0.16
2022-11-28T20:43:48.519Z,0.14
2022-11-28T20:47:50.629Z,0.14
2022-11-28T20:51:52.583Z,0.15
2022-11-28T20:55:59.758Z,0.17
2022-11-28T21:00:01.726Z,0.15
2022-11-28T21:04:06.432Z,0.13
2022-11-28T21:08:08.516Z,0.13
2022-11-28T21:12:10.711Z,0.14
2022-11-28T21:16:15.942Z,0.17
2022-11-28T21:20:17.966Z,0.20
2022-11-28T21:24:19.898Z,0.22
2022-11-28T21:28:21.851Z,0.22
2022-11-28T21:32:23.743Z,0.19
2022-11-28T21:36:28.038Z,0.19
2022-11-28T21:40:30.244Z,0.20
2022-11-28T21:44:32.330Z,0.22
2022-11-28T21:48:35.242Z,0.24
2022-11-28T21:52:37.836Z,0.23
2022-11-28T21:56:40.720Z,0.19
2022-11-28T22:00:57.596Z,0.19
2022-11-28T22:04:59.670Z,0.20
2022-11-28T22:09:09.151Z,0.23
2022-11-28T22:13:11.912Z,0.24
2022-11-28T22:17:13.796Z,0.21
2022-11-28T22:21:49.987Z,0.21
2022-11-28T22:25:38.251Z,0.24
2022-11-28T22:29:40.572Z,0.27
2022-11-28T22:33:42.778Z,0.26
2022-11-28T22:37:45.038Z,0.24
2022-11-28T22:41:47.000Z,0.23
2022-11-28T22:45:57.359Z,0.23
2022-11-28T22:49:59.404Z,0.24
2022-11-28T22:54:02.792Z,0.22
2022-11-28T22:58:05.091Z,0.19
2022-11-28T23:02:09.190Z,0.13
2022-11-28T23:06:14.648Z,0.12
2022-11-28T23:10:17.346Z,0.11
2022-11-28T23:14:19.336Z,0.12
2022-11-28T23:18:22.738Z,0.13
2022-11-28T23:22:26.034Z,0.11
2022-11-28T23:26:32.311Z,0.13
2022-11-28T23:30:34.913Z,0.15
2022-11-28T23:34:37.191Z,0.18
2022-11-28T23:38:39.205Z,0.18
2022-11-28T23:42:41.276Z,0.15
2022-11-28T23:46:43.981Z,0.14
2022-11-28T23:50:46.901Z,0.13
2022-11-28T23:54:48.822Z,0.13
2022-11-28T23:58:51.952Z,0.12
